sensor_id;sensor_type;location;lat;lon;timestamp;P1;durP1;ratioP1;P2;durP2;ratioP2
55009;SDS011;40903;51.638;7.528;2023-07-29T00:01:50;4.13;;;3.60;;
55009;SDS011;40903;51.638;7.528;2023-07-29T00:04:16;4.20;;;3.80;;
55009;SDS011;40903;51.638;7.528;2023-07-29T00:06:42;6.70;;;3.87;;
55009;SDS011;40903;51.638;7.528;2023-07-29T00:09:07;3.83;;;3.53;;
55009;SDS011;40903;51.638;7.528;2023-07-29T00:11:32;4.33;;;3.80;;
55009;SDS011;40903;51.638;7.528;2023-07-29T00:13:59;4.23;;;3.83;;
55009;SDS011;40903;51.638;7.528;2023-07-29T00:16:25;5.13;;;3.40;;
55009;SDS011;40903;51.638;7.528;2023-07-29T00:18:51;4.23;;;3.83;;
55009;SDS011;40903;51.638;7.528;2023-07-29T00:21:16;3.87;;;3.50;;
55009;SDS011;40903;51.638;7.528;2023-07-29T00:23:41;4.50;;;3.67;;
55009;SDS011;40903;51.638;7.528;2023-07-29T00:26:07;3.80;;;3.40;;
55009;SDS011;40903;51.638;7.528;2023-07-29T00:28:32;3.97;;;3.50;;
55009;SDS011;40903;51.638;7.528;2023-07-29T00:30:58;4.10;;;3.53;;
55009;SDS011;40903;51.638;7.528;2023-07-29T00:33:23;3.57;;;3.27;;
55009;SDS011;40903;51.638;7.528;2023-07-29T00:35:48;3.10;;;2.90;;
55009;SDS011;40903;51.638;7.528;2023-07-29T00:38:14;3.40;;;3.10;;
55009;SDS011;40903;51.638;7.528;2023-07-29T00:40:39;3.63;;;3.33;;
55009;SDS011;40903;51.638;7.528;2023-07-29T00:43:05;3.47;;;3.13;;
55009;SDS011;40903;51.638;7.528;2023-07-29T00:45:31;3.50;;;3.20;;
55009;SDS011;40903;51.638;7.528;2023-07-29T00:47:58;3.50;;;3.20;;
55009;SDS011;40903;51.638;7.528;2023-07-29T00:50:24;4.30;;;3.87;;
55009;SDS011;40903;51.638;7.528;2023-07-29T00:52:50;3.67;;;3.37;;
55009;SDS011;40903;51.638;7.528;2023-07-29T00:55:15;3.53;;;3.23;;
55009;SDS011;40903;51.638;7.528;2023-07-29T00:57:41;3.93;;;3.63;;
55009;SDS011;40903;51.638;7.528;2023-07-29T01:00:07;3.30;;;3.00;;
55009;SDS011;40903;51.638;7.528;2023-07-29T01:02:34;4.93;;;4.43;;
55009;SDS011;40903;51.638;7.528;2023-07-29T01:05:00;6.47;;;3.93;;
55009;SDS011;40903;51.638;7.528;2023-07-29T01:07:32;4.03;;;3.73;;
55009;SDS011;40903;51.638;7.528;2023-07-29T01:10:07;3.90;;;3.60;;
55009;SDS011;40903;51.638;7.528;2023-07-29T01:18:18;4.60;;;4.07;;
55009;SDS011;40903;51.638;7.528;2023-07-29T01:20:47;4.87;;;4.27;;
55009;SDS011;40903;51.638;7.528;2023-07-29T01:23:15;3.90;;;3.60;;
55009;SDS011;40903;51.638;7.528;2023-07-29T01:25:41;5.77;;;4.00;;
55009;SDS011;40903;51.638;7.528;2023-07-29T01:28:06;4.23;;;3.93;;
55009;SDS011;40903;51.638;7.528;2023-07-29T01:30:33;4.43;;;4.10;;
55009;SDS011;40903;51.638;7.528;2023-07-29T01:40:46;4.13;;;3.70;;
55009;SDS011;40903;51.638;7.528;2023-07-29T01:43:15;4.13;;;3.53;;
55009;SDS011;40903;51.638;7.528;2023-07-29T01:45:41;4.30;;;3.20;;
55009;SDS011;40903;51.638;7.528;2023-07-29T01:48:07;3.80;;;3.50;;
55009;SDS011;40903;51.638;7.528;2023-07-29T01:50:32;3.80;;;3.50;;
55009;SDS011;40903;51.638;7.528;2023-07-29T01:52:59;3.60;;;3.30;;
55009;SDS011;40903;51.638;7.528;2023-07-29T01:55:24;4.00;;;3.70;;
55009;SDS011;40903;51.638;7.528;2023-07-29T01:57:50;4.33;;;3.97;;
55009;SDS011;40903;51.638;7.528;2023-07-29T02:00:16;4.07;;;3.77;;
55009;SDS011;40903;51.638;7.528;2023-07-29T02:02:43;3.83;;;3.53;;
55009;SDS011;40903;51.638;7.528;2023-07-29T02:05:08;3.63;;;3.43;;
55009;SDS011;40903;51.638;7.528;2023-07-29T02:07:34;5.63;;;4.30;;
55009;SDS011;40903;51.638;7.528;2023-07-29T02:09:59;3.90;;;3.60;;
55009;SDS011;40903;51.638;7.528;2023-07-29T02:12:25;3.77;;;3.47;;
55009;SDS011;40903;51.638;7.528;2023-07-29T02:14:50;3.70;;;3.40;;
55009;SDS011;40903;51.638;7.528;2023-07-29T02:17:15;3.70;;;3.40;;
55009;SDS011;40903;51.638;7.528;2023-07-29T02:19:41;3.90;;;3.60;;
55009;SDS011;40903;51.638;7.528;2023-07-29T02:22:06;4.20;;;3.90;;
55009;SDS011;40903;51.638;7.528;2023-07-29T02:24:31;4.50;;;4.10;;
55009;SDS011;40903;51.638;7.528;2023-07-29T02:26:57;3.90;;;3.60;;
55009;SDS011;40903;51.638;7.528;2023-07-29T02:29:22;4.43;;;3.83;;
55009;SDS011;40903;51.638;7.528;2023-07-29T02:31:48;4.23;;;3.77;;
55009;SDS011;40903;51.638;7.528;2023-07-29T02:34:13;4.97;;;3.30;;
55009;SDS011;40903;51.638;7.528;2023-07-29T02:36:39;3.17;;;2.87;;
55009;SDS011;40903;51.638;7.528;2023-07-29T02:39:04;3.27;;;2.93;;
55009;SDS011;40903;51.638;7.528;2023-07-29T02:41:30;3.47;;;3.27;;
55009;SDS011;40903;51.638;7.528;2023-07-29T02:43:55;4.20;;;3.90;;
55009;SDS011;40903;51.638;7.528;2023-07-29T02:46:20;3.27;;;3.07;;
55009;SDS011;40903;51.638;7.528;2023-07-29T02:48:46;3.67;;;3.37;;
55009;SDS011;40903;51.638;7.528;2023-07-29T02:51:11;3.93;;;3.40;;
55009;SDS011;40903;51.638;7.528;2023-07-29T02:53:36;3.93;;;3.63;;
55009;SDS011;40903;51.638;7.528;2023-07-29T02:56:02;4.57;;;4.17;;
55009;SDS011;40903;51.638;7.528;2023-07-29T02:58:28;4.53;;;3.67;;
55009;SDS011;40903;51.638;7.528;2023-07-29T03:00:59;5.00;;;3.70;;
55009;SDS011;40903;51.638;7.528;2023-07-29T03:03:27;3.53;;;3.23;;
55009;SDS011;40903;51.638;7.528;2023-07-29T03:05:57;4.50;;;3.50;;
55009;SDS011;40903;51.638;7.528;2023-07-29T03:08:26;5.63;;;3.70;;
55009;SDS011;40903;51.638;7.528;2023-07-29T03:10:51;3.90;;;3.60;;
55009;SDS011;40903;51.638;7.528;2023-07-29T03:13:17;6.30;;;3.57;;
55009;SDS011;40903;51.638;7.528;2023-07-29T03:15:42;3.93;;;3.63;;
55009;SDS011;40903;51.638;7.528;2023-07-29T03:18:07;5.03;;;3.77;;
55009;SDS011;40903;51.638;7.528;2023-07-29T03:20:33;3.63;;;3.37;;
55009;SDS011;40903;51.638;7.528;2023-07-29T03:22:58;3.93;;;3.43;;
55009;SDS011;40903;51.638;7.528;2023-07-29T03:25:23;5.00;;;3.50;;
55009;SDS011;40903;51.638;7.528;2023-07-29T03:27:49;3.60;;;3.40;;
55009;SDS011;40903;51.638;7.528;2023-07-29T03:30:14;3.70;;;3.40;;
55009;SDS011;40903;51.638;7.528;2023-07-29T03:32:43;3.77;;;3.43;;
55009;SDS011;40903;51.638;7.528;2023-07-29T03:35:12;5.37;;;3.87;;
55009;SDS011;40903;51.638;7.528;2023-07-29T03:37:37;3.47;;;3.23;;
55009;SDS011;40903;51.638;7.528;2023-07-29T03:40:03;3.70;;;3.27;;
55009;SDS011;40903;51.638;7.528;2023-07-29T03:42:29;3.80;;;3.50;;
55009;SDS011;40903;51.638;7.528;2023-07-29T03:44:54;3.83;;;3.53;;
55009;SDS011;40903;51.638;7.528;2023-07-29T03:47:20;3.73;;;3.43;;
55009;SDS011;40903;51.638;7.528;2023-07-29T03:49:45;4.03;;;3.73;;
55009;SDS011;40903;51.638;7.528;2023-07-29T03:52:10;4.63;;;3.53;;
55009;SDS011;40903;51.638;7.528;2023-07-29T03:54:36;3.47;;;3.17;;
55009;SDS011;40903;51.638;7.528;2023-07-29T03:57:01;3.50;;;3.20;;
55009;SDS011;40903;51.638;7.528;2023-07-29T03:59:27;5.13;;;3.33;;
55009;SDS011;40903;51.638;7.528;2023-07-29T04:01:52;5.37;;;3.40;;
55009;SDS011;40903;51.638;7.528;2023-07-29T04:04:17;3.30;;;3.10;;
55009;SDS011;40903;51.638;7.528;2023-07-29T04:06:43;3.17;;;2.87;;
55009;SDS011;40903;51.638;7.528;2023-07-29T04:09:08;3.80;;;2.77;;
55009;SDS011;40903;51.638;7.528;2023-07-29T04:11:34;3.63;;;2.80;;
55009;SDS011;40903;51.638;7.528;2023-07-29T04:13:59;3.57;;;3.10;;
55009;SDS011;40903;51.638;7.528;2023-07-29T04:16:25;4.73;;;2.90;;
55009;SDS011;40903;51.638;7.528;2023-07-29T04:18:50;3.80;;;2.80;;
55009;SDS011;40903;51.638;7.528;2023-07-29T04:21:15;3.30;;;3.10;;
55009;SDS011;40903;51.638;7.528;2023-07-29T04:23:41;3.17;;;2.87;;
55009;SDS011;40903;51.638;7.528;2023-07-29T04:26:06;2.73;;;2.53;;
55009;SDS011;40903;51.638;7.528;2023-07-29T04:28:31;4.30;;;2.93;;
55009;SDS011;40903;51.638;7.528;2023-07-29T04:30:57;3.07;;;2.77;;
55009;SDS011;40903;51.638;7.528;2023-07-29T04:33:22;2.90;;;2.70;;
55009;SDS011;40903;51.638;7.528;2023-07-29T04:35:47;4.93;;;3.13;;
55009;SDS011;40903;51.638;7.528;2023-07-29T04:38:13;3.30;;;3.10;;
55009;SDS011;40903;51.638;7.528;2023-07-29T04:40:38;3.40;;;3.10;;
55009;SDS011;40903;51.638;7.528;2023-07-29T04:43:04;3.37;;;2.77;;
55009;SDS011;40903;51.638;7.528;2023-07-29T04:45:29;3.77;;;3.47;;
55009;SDS011;40903;51.638;7.528;2023-07-29T04:47:55;3.80;;;3.50;;
55009;SDS011;40903;51.638;7.528;2023-07-29T04:50:21;3.97;;;3.37;;
55009;SDS011;40903;51.638;7.528;2023-07-29T04:52:46;4.30;;;3.90;;
55009;SDS011;40903;51.638;7.528;2023-07-29T04:55:11;6.17;;;3.40;;
55009;SDS011;40903;51.638;7.528;2023-07-29T04:57:37;3.33;;;3.13;;
55009;SDS011;40903;51.638;7.528;2023-07-29T05:00:02;4.57;;;4.07;;
55009;SDS011;40903;51.638;7.528;2023-07-29T05:02:28;4.17;;;3.83;;
55009;SDS011;40903;51.638;7.528;2023-07-29T05:04:53;3.70;;;3.43;;
55009;SDS011;40903;51.638;7.528;2023-07-29T05:07:19;7.30;;;4.67;;
55009;SDS011;40903;51.638;7.528;2023-07-29T05:09:44;4.70;;;4.30;;
55009;SDS011;40903;51.638;7.528;2023-07-29T05:12:09;4.83;;;4.43;;
55009;SDS011;40903;51.638;7.528;2023-07-29T05:14:35;4.73;;;4.33;;
55009;SDS011;40903;51.638;7.528;2023-07-29T05:17:00;4.90;;;4.50;;
55009;SDS011;40903;51.638;7.528;2023-07-29T05:19:26;6.83;;;4.80;;
55009;SDS011;40903;51.638;7.528;2023-07-29T05:21:51;5.50;;;5.00;;
55009;SDS011;40903;51.638;7.528;2023-07-29T05:24:17;5.30;;;4.50;;
55009;SDS011;40903;51.638;7.528;2023-07-29T05:26:42;5.70;;;5.20;;
55009;SDS011;40903;51.638;7.528;2023-07-29T05:29:07;6.50;;;4.90;;
55009;SDS011;40903;51.638;7.528;2023-07-29T05:31:33;5.17;;;4.70;;
55009;SDS011;40903;51.638;7.528;2023-07-29T05:33:58;5.33;;;4.83;;
55009;SDS011;40903;51.638;7.528;2023-07-29T05:36:24;6.57;;;4.87;;
55009;SDS011;40903;51.638;7.528;2023-07-29T05:38:50;7.03;;;6.20;;
55009;SDS011;40903;51.638;7.528;2023-07-29T05:41:16;6.63;;;5.93;;
55009;SDS011;40903;51.638;7.528;2023-07-29T05:43:41;9.17;;;6.90;;
55009;SDS011;40903;51.638;7.528;2023-07-29T05:46:08;6.70;;;6.20;;
55009;SDS011;40903;51.638;7.528;2023-07-29T05:48:34;7.13;;;6.43;;
55009;SDS011;40903;51.638;7.528;2023-07-29T05:50:59;8.70;;;7.57;;
55009;SDS011;40903;51.638;7.528;2023-07-29T05:53:24;7.50;;;6.90;;
55009;SDS011;40903;51.638;7.528;2023-07-29T05:55:50;9.07;;;8.20;;
55009;SDS011;40903;51.638;7.528;2023-07-29T05:58:15;7.57;;;6.87;;
55009;SDS011;40903;51.638;7.528;2023-07-29T06:00:40;7.90;;;7.20;;
55009;SDS011;40903;51.638;7.528;2023-07-29T06:03:07;9.40;;;8.07;;
55009;SDS011;40903;51.638;7.528;2023-07-29T06:05:32;9.50;;;6.97;;
55009;SDS011;40903;51.638;7.528;2023-07-29T06:07:57;8.27;;;7.57;;
55009;SDS011;40903;51.638;7.528;2023-07-29T06:10:23;9.13;;;7.77;;
55009;SDS011;40903;51.638;7.528;2023-07-29T06:12:48;8.30;;;7.50;;
55009;SDS011;40903;51.638;7.528;2023-07-29T06:15:14;8.70;;;7.80;;
55009;SDS011;40903;51.638;7.528;2023-07-29T06:17:40;9.50;;;8.57;;
55009;SDS011;40903;51.638;7.528;2023-07-29T06:20:06;8.87;;;8.17;;
55009;SDS011;40903;51.638;7.528;2023-07-29T06:22:31;11.30;;;8.67;;
55009;SDS011;40903;51.638;7.528;2023-07-29T06:24:57;10.67;;;9.03;;
55009;SDS011;40903;51.638;7.528;2023-07-29T06:27:22;12.37;;;11.03;;
55009;SDS011;40903;51.638;7.528;2023-07-29T06:29:49;10.20;;;9.27;;
55009;SDS011;40903;51.638;7.528;2023-07-29T06:32:15;12.73;;;11.30;;
55009;SDS011;40903;51.638;7.528;2023-07-29T06:34:40;14.67;;;12.23;;
55009;SDS011;40903;51.638;7.528;2023-07-29T06:37:05;15.23;;;11.47;;
55009;SDS011;40903;51.638;7.528;2023-07-29T06:39:31;13.97;;;10.90;;
55009;SDS011;40903;51.638;7.528;2023-07-29T06:41:57;11.97;;;10.60;;
55009;SDS011;40903;51.638;7.528;2023-07-29T06:44:22;12.50;;;9.80;;
55009;SDS011;40903;51.638;7.528;2023-07-29T06:46:48;11.47;;;9.83;;
55009;SDS011;40903;51.638;7.528;2023-07-29T06:49:13;10.73;;;8.57;;
55009;SDS011;40903;51.638;7.528;2023-07-29T06:51:38;9.27;;;7.33;;
55009;SDS011;40903;51.638;7.528;2023-07-29T06:54:04;7.27;;;6.27;;
55009;SDS011;40903;51.638;7.528;2023-07-29T06:56:29;6.97;;;4.63;;
55009;SDS011;40903;51.638;7.528;2023-07-29T06:58:55;4.77;;;4.37;;
55009;SDS011;40903;51.638;7.528;2023-07-29T07:01:20;4.47;;;3.30;;
55009;SDS011;40903;51.638;7.528;2023-07-29T07:03:46;3.43;;;3.00;;
55009;SDS011;40903;51.638;7.528;2023-07-29T07:06:11;3.20;;;2.73;;
55009;SDS011;40903;51.638;7.528;2023-07-29T07:08:36;3.10;;;2.80;;
55009;SDS011;40903;51.638;7.528;2023-07-29T07:11:02;3.40;;;2.60;;
55009;SDS011;40903;51.638;7.528;2023-07-29T07:13:27;4.67;;;2.37;;
55009;SDS011;40903;51.638;7.528;2023-07-29T07:15:56;2.40;;;2.20;;
55009;SDS011;40903;51.638;7.528;2023-07-29T07:18:22;3.60;;;2.20;;
55009;SDS011;40903;51.638;7.528;2023-07-29T07:20:48;4.53;;;2.50;;
55009;SDS011;40903;51.638;7.528;2023-07-29T07:23:14;5.30;;;2.60;;
55009;SDS011;40903;51.638;7.528;2023-07-29T07:25:40;2.80;;;2.10;;
55009;SDS011;40903;51.638;7.528;2023-07-29T07:28:07;4.60;;;2.10;;
55009;SDS011;40903;51.638;7.528;2023-07-29T07:30:32;3.00;;;2.07;;
55009;SDS011;40903;51.638;7.528;2023-07-29T07:32:58;3.23;;;1.90;;
55009;SDS011;40903;51.638;7.528;2023-07-29T07:35:23;2.40;;;2.20;;
55009;SDS011;40903;51.638;7.528;2023-07-29T07:37:48;5.60;;;2.40;;
55009;SDS011;40903;51.638;7.528;2023-07-29T07:40:13;3.87;;;2.10;;
55009;SDS011;40903;51.638;7.528;2023-07-29T07:42:39;3.70;;;2.57;;
55009;SDS011;40903;51.638;7.528;2023-07-29T07:45:04;7.43;;;3.03;;
55009;SDS011;40903;51.638;7.528;2023-07-29T07:47:30;7.80;;;3.80;;
55009;SDS011;40903;51.638;7.528;2023-07-29T07:49:55;10.50;;;5.10;;
55009;SDS011;40903;51.638;7.528;2023-07-29T07:52:21;3.50;;;2.53;;
55009;SDS011;40903;51.638;7.528;2023-07-29T07:54:51;5.13;;;2.63;;
55009;SDS011;40903;51.638;7.528;2023-07-29T07:57:17;8.60;;;4.37;;
55009;SDS011;40903;51.638;7.528;2023-07-29T07:59:42;5.53;;;2.87;;
55009;SDS011;40903;51.638;7.528;2023-07-29T08:02:08;4.20;;;3.00;;
55009;SDS011;40903;51.638;7.528;2023-07-29T08:04:33;3.53;;;2.37;;
55009;SDS011;40903;51.638;7.528;2023-07-29T08:06:58;5.30;;;2.83;;
55009;SDS011;40903;51.638;7.528;2023-07-29T08:09:24;4.40;;;3.13;;
55009;SDS011;40903;51.638;7.528;2023-07-29T08:11:49;8.27;;;3.53;;
55009;SDS011;40903;51.638;7.528;2023-07-29T08:14:14;4.97;;;2.10;;
55009;SDS011;40903;51.638;7.528;2023-07-29T08:16:40;11.47;;;5.20;;
55009;SDS011;40903;51.638;7.528;2023-07-29T08:19:05;5.90;;;2.47;;
55009;SDS011;40903;51.638;7.528;2023-07-29T08:21:32;6.77;;;3.03;;
55009;SDS011;40903;51.638;7.528;2023-07-29T08:23:57;4.37;;;2.40;;
55009;SDS011;40903;51.638;7.528;2023-07-29T08:26:23;3.33;;;2.20;;
55009;SDS011;40903;51.638;7.528;2023-07-29T08:28:48;4.73;;;2.03;;
55009;SDS011;40903;51.638;7.528;2023-07-29T08:31:14;3.73;;;2.30;;
55009;SDS011;40903;51.638;7.528;2023-07-29T08:33:40;3.47;;;1.57;;
55009;SDS011;40903;51.638;7.528;2023-07-29T08:36:05;4.77;;;2.40;;
55009;SDS011;40903;51.638;7.528;2023-07-29T08:38:30;2.23;;;1.73;;
55009;SDS011;40903;51.638;7.528;2023-07-29T08:43:57;3.30;;;1.60;;
55009;SDS011;40903;51.638;7.528;2023-07-29T08:46:26;2.03;;;1.30;;
55009;SDS011;40903;51.638;7.528;2023-07-29T08:48:53;1.60;;;1.50;;
55009;SDS011;40903;51.638;7.528;2023-07-29T08:51:20;1.20;;;1.10;;
55009;SDS011;40903;51.638;7.528;2023-07-29T08:53:48;2.50;;;1.30;;
55009;SDS011;40903;51.638;7.528;2023-07-29T08:56:14;3.03;;;1.63;;
55009;SDS011;40903;51.638;7.528;2023-07-29T08:58:40;2.20;;;1.63;;
55009;SDS011;40903;51.638;7.528;2023-07-29T09:01:06;2.80;;;1.50;;
55009;SDS011;40903;51.638;7.528;2023-07-29T09:03:32;1.73;;;1.50;;
55009;SDS011;40903;51.638;7.528;2023-07-29T09:05:57;1.47;;;1.37;;
55009;SDS011;40903;51.638;7.528;2023-07-29T09:08:24;1.50;;;1.10;;
55009;SDS011;40903;51.638;7.528;2023-07-29T09:10:51;2.10;;;1.10;;
55009;SDS011;40903;51.638;7.528;2023-07-29T09:13:17;2.10;;;1.20;;
55009;SDS011;40903;51.638;7.528;2023-07-29T09:15:42;1.90;;;1.00;;
55009;SDS011;40903;51.638;7.528;2023-07-29T09:18:08;1.10;;;1.00;;
55009;SDS011;40903;51.638;7.528;2023-07-29T09:20:42;1.40;;;1.20;;
55009;SDS011;40903;51.638;7.528;2023-07-29T09:23:08;1.13;;;1.03;;
55009;SDS011;40903;51.638;7.528;2023-07-29T09:25:35;1.27;;;0.97;;
55009;SDS011;40903;51.638;7.528;2023-07-29T09:28:02;1.43;;;1.10;;
55009;SDS011;40903;51.638;7.528;2023-07-29T09:30:33;2.27;;;1.40;;
55009;SDS011;40903;51.638;7.528;2023-07-29T09:32:59;1.00;;;1.00;;
55009;SDS011;40903;51.638;7.528;2023-07-29T09:35:28;1.57;;;1.10;;
55009;SDS011;40903;51.638;7.528;2023-07-29T09:37:55;1.53;;;1.10;;
55009;SDS011;40903;51.638;7.528;2023-07-29T09:40:20;1.60;;;1.10;;
55009;SDS011;40903;51.638;7.528;2023-07-29T09:42:54;4.87;;;1.10;;
55009;SDS011;40903;51.638;7.528;2023-07-29T09:45:24;1.13;;;1.10;;
55009;SDS011;40903;51.638;7.528;2023-07-29T09:47:51;1.23;;;1.10;;
55009;SDS011;40903;51.638;7.528;2023-07-29T09:50:18;1.23;;;1.10;;
55009;SDS011;40903;51.638;7.528;2023-07-29T09:52:43;1.70;;;1.27;;
55009;SDS011;40903;51.638;7.528;2023-07-29T09:55:12;1.57;;;1.47;;
55009;SDS011;40903;51.638;7.528;2023-07-29T09:57:39;2.37;;;1.50;;
55009;SDS011;40903;51.638;7.528;2023-07-29T10:00:05;2.80;;;1.53;;
55009;SDS011;40903;51.638;7.528;2023-07-29T10:02:36;1.60;;;1.50;;
55009;SDS011;40903;51.638;7.528;2023-07-29T10:05:05;1.60;;;1.50;;
55009;SDS011;40903;51.638;7.528;2023-07-29T10:07:33;1.73;;;1.33;;
55009;SDS011;40903;51.638;7.528;2023-07-29T10:10:02;1.60;;;1.50;;
55009;SDS011;40903;51.638;7.528;2023-07-29T10:12:30;1.77;;;1.67;;
55009;SDS011;40903;51.638;7.528;2023-07-29T10:14:58;2.87;;;1.47;;
55009;SDS011;40903;51.638;7.528;2023-07-29T10:17:25;2.00;;;1.30;;
55009;SDS011;40903;51.638;7.528;2023-07-29T10:19:51;2.77;;;1.23;;
55009;SDS011;40903;51.638;7.528;2023-07-29T10:22:18;2.07;;;1.50;;
55009;SDS011;40903;51.638;7.528;2023-07-29T10:24:45;1.47;;;1.37;;
55009;SDS011;40903;51.638;7.528;2023-07-29T10:27:13;1.30;;;1.20;;
55009;SDS011;40903;51.638;7.528;2023-07-29T10:29:42;2.57;;;1.50;;
55009;SDS011;40903;51.638;7.528;2023-07-29T10:32:09;1.57;;;1.30;;
55009;SDS011;40903;51.638;7.528;2023-07-29T10:34:36;3.23;;;1.70;;
55009;SDS011;40903;51.638;7.528;2023-07-29T10:37:03;1.87;;;1.70;;
55009;SDS011;40903;51.638;7.528;2023-07-29T10:39:37;3.20;;;1.80;;
55009;SDS011;40903;51.638;7.528;2023-07-29T10:42:16;2.63;;;1.50;;
55009;SDS011;40903;51.638;7.528;2023-07-29T10:47:20;2.63;;;1.60;;
55009;SDS011;40903;51.638;7.528;2023-07-29T10:49:50;2.00;;;1.80;;
55009;SDS011;40903;51.638;7.528;2023-07-29T10:52:31;3.90;;;2.33;;
55009;SDS011;40903;51.638;7.528;2023-07-29T10:55:00;3.57;;;2.00;;
55009;SDS011;40903;51.638;7.528;2023-07-29T10:57:33;1.77;;;1.50;;
55009;SDS011;40903;51.638;7.528;2023-07-29T11:00:01;3.17;;;2.00;;
55009;SDS011;40903;51.638;7.528;2023-07-29T11:02:34;2.70;;;1.97;;
55009;SDS011;40903;51.638;7.528;2023-07-29T11:05:17;2.00;;;1.90;;
55009;SDS011;40903;51.638;7.528;2023-07-29T11:07:52;2.50;;;2.30;;
55009;SDS011;40903;51.638;7.528;2023-07-29T11:10:17;2.40;;;2.20;;
55009;SDS011;40903;51.638;7.528;2023-07-29T11:12:44;2.13;;;1.93;;
55009;SDS011;40903;51.638;7.528;2023-07-29T11:17:37;2.87;;;1.80;;
55009;SDS011;40903;51.638;7.528;2023-07-29T11:20:04;1.40;;;1.30;;
55009;SDS011;40903;51.638;7.528;2023-07-29T11:22:32;1.33;;;1.23;;
55009;SDS011;40903;51.638;7.528;2023-07-29T11:24:57;1.23;;;1.17;;
55009;SDS011;40903;51.638;7.528;2023-07-29T11:27:23;3.90;;;1.33;;
55009;SDS011;40903;51.638;7.528;2023-07-29T11:29:48;2.17;;;1.20;;
55009;SDS011;40903;51.638;7.528;2023-07-29T11:32:14;2.33;;;1.40;;
55009;SDS011;40903;51.638;7.528;2023-07-29T11:34:41;3.27;;;1.57;;
55009;SDS011;40903;51.638;7.528;2023-07-29T11:37:08;3.23;;;2.43;;
55009;SDS011;40903;51.638;7.528;2023-07-29T11:39:39;1.87;;;1.57;;
55009;SDS011;40903;51.638;7.528;2023-07-29T11:42:11;1.60;;;1.50;;
55009;SDS011;40903;51.638;7.528;2023-07-29T11:44:36;1.43;;;1.33;;
55009;SDS011;40903;51.638;7.528;2023-07-29T11:47:02;1.83;;;1.60;;
55009;SDS011;40903;51.638;7.528;2023-07-29T11:49:34;3.27;;;1.87;;
55009;SDS011;40903;51.638;7.528;2023-07-29T11:52:01;2.40;;;1.70;;
55009;SDS011;40903;51.638;7.528;2023-07-29T11:54:28;2.53;;;1.70;;
55009;SDS011;40903;51.638;7.528;2023-07-29T11:56:53;2.33;;;1.47;;
55009;SDS011;40903;51.638;7.528;2023-07-29T11:59:20;2.70;;;1.40;;
55009;SDS011;40903;51.638;7.528;2023-07-29T12:01:45;1.90;;;1.67;;
55009;SDS011;40903;51.638;7.528;2023-07-29T12:04:11;1.63;;;1.53;;
55009;SDS011;40903;51.638;7.528;2023-07-29T12:06:37;2.53;;;1.43;;
55009;SDS011;40903;51.638;7.528;2023-07-29T12:09:03;4.27;;;1.90;;
55009;SDS011;40903;51.638;7.528;2023-07-29T12:11:29;3.70;;;1.50;;
55009;SDS011;40903;51.638;7.528;2023-07-29T12:13:55;1.43;;;1.33;;
55009;SDS011;40903;51.638;7.528;2023-07-29T12:16:20;2.53;;;1.60;;
55009;SDS011;40903;51.638;7.528;2023-07-29T12:18:45;2.40;;;1.80;;
55009;SDS011;40903;51.638;7.528;2023-07-29T12:21:13;2.57;;;1.40;;
55009;SDS011;40903;51.638;7.528;2023-07-29T12:23:39;2.27;;;1.70;;
55009;SDS011;40903;51.638;7.528;2023-07-29T12:26:04;2.60;;;1.70;;
55009;SDS011;40903;51.638;7.528;2023-07-29T12:28:30;1.90;;;1.67;;
55009;SDS011;40903;51.638;7.528;2023-07-29T12:30:56;2.00;;;1.87;;
55009;SDS011;40903;51.638;7.528;2023-07-29T12:36:07;4.87;;;2.00;;
55009;SDS011;40903;51.638;7.528;2023-07-29T12:38:32;1.60;;;1.50;;
55009;SDS011;40903;51.638;7.528;2023-07-29T12:40:58;2.93;;;1.50;;
55009;SDS011;40903;51.638;7.528;2023-07-29T12:43:24;2.40;;;2.20;;
55009;SDS011;40903;51.638;7.528;2023-07-29T12:45:50;2.07;;;1.87;;
55009;SDS011;40903;51.638;7.528;2023-07-29T12:48:15;2.10;;;1.50;;
55009;SDS011;40903;51.638;7.528;2023-07-29T12:50:41;2.10;;;1.67;;
55009;SDS011;40903;51.638;7.528;2023-07-29T12:53:07;2.73;;;1.50;;
55009;SDS011;40903;51.638;7.528;2023-07-29T12:55:33;4.30;;;1.50;;
55009;SDS011;40903;51.638;7.528;2023-07-29T12:57:59;5.23;;;1.60;;
55009;SDS011;40903;51.638;7.528;2023-07-29T13:00:24;4.27;;;1.60;;
55009;SDS011;40903;51.638;7.528;2023-07-29T13:02:50;2.37;;;1.90;;
55009;SDS011;40903;51.638;7.528;2023-07-29T13:05:16;1.87;;;1.43;;
55009;SDS011;40903;51.638;7.528;2023-07-29T13:07:42;2.83;;;1.70;;
55009;SDS011;40903;51.638;7.528;2023-07-29T13:10:09;1.30;;;1.20;;
55009;SDS011;40903;51.638;7.528;2023-07-29T13:12:35;1.60;;;1.50;;
55009;SDS011;40903;51.638;7.528;2023-07-29T13:15:00;1.60;;;1.50;;
55009;SDS011;40903;51.638;7.528;2023-07-29T13:17:26;2.63;;;1.33;;
55009;SDS011;40903;51.638;7.528;2023-07-29T13:19:51;1.40;;;1.30;;
55009;SDS011;40903;51.638;7.528;2023-07-29T13:22:17;1.40;;;1.30;;
55009;SDS011;40903;51.638;7.528;2023-07-29T13:24:42;2.33;;;1.33;;
55009;SDS011;40903;51.638;7.528;2023-07-29T13:27:08;6.23;;;2.03;;
55009;SDS011;40903;51.638;7.528;2023-07-29T13:29:33;5.37;;;2.63;;
55009;SDS011;40903;51.638;7.528;2023-07-29T13:31:59;6.10;;;3.20;;
55009;SDS011;40903;51.638;7.528;2023-07-29T13:34:24;12.77;;;4.97;;
55009;SDS011;40903;51.638;7.528;2023-07-29T13:36:50;3.70;;;2.03;;
55009;SDS011;40903;51.638;7.528;2023-07-29T13:39:15;9.13;;;3.20;;
55009;SDS011;40903;51.638;7.528;2023-07-29T13:41:41;1.70;;;1.60;;
55009;SDS011;40903;51.638;7.528;2023-07-29T13:44:06;2.10;;;1.80;;
55009;SDS011;40903;51.638;7.528;2023-07-29T13:46:31;2.50;;;2.20;;
55009;SDS011;40903;51.638;7.528;2023-07-29T13:48:57;5.33;;;2.70;;
55009;SDS011;40903;51.638;7.528;2023-07-29T13:51:22;4.27;;;2.37;;
55009;SDS011;40903;51.638;7.528;2023-07-29T13:53:48;2.77;;;1.73;;
55009;SDS011;40903;51.638;7.528;2023-07-29T13:56:13;2.43;;;1.77;;
55009;SDS011;40903;51.638;7.528;2023-07-29T13:58:39;2.43;;;1.57;;
55009;SDS011;40903;51.638;7.528;2023-07-29T14:01:05;1.83;;;1.60;;
55009;SDS011;40903;51.638;7.528;2023-07-29T14:03:30;1.93;;;1.70;;
55009;SDS011;40903;51.638;7.528;2023-07-29T14:05:55;3.80;;;1.93;;
55009;SDS011;40903;51.638;7.528;2023-07-29T14:08:21;2.43;;;1.73;;
55009;SDS011;40903;51.638;7.528;2023-07-29T14:10:48;3.13;;;1.80;;
55009;SDS011;40903;51.638;7.528;2023-07-29T14:13:14;2.97;;;1.70;;
55009;SDS011;40903;51.638;7.528;2023-07-29T14:15:40;3.63;;;2.00;;
55009;SDS011;40903;51.638;7.528;2023-07-29T14:18:05;2.23;;;1.60;;
55009;SDS011;40903;51.638;7.528;2023-07-29T14:20:31;3.27;;;1.80;;
55009;SDS011;40903;51.638;7.528;2023-07-29T14:22:57;1.40;;;1.30;;
55009;SDS011;40903;51.638;7.528;2023-07-29T14:25:22;2.07;;;1.90;;
55009;SDS011;40903;51.638;7.528;2023-07-29T14:27:48;1.70;;;1.60;;
55009;SDS011;40903;51.638;7.528;2023-07-29T14:30:13;1.70;;;1.57;;
55009;SDS011;40903;51.638;7.528;2023-07-29T14:32:39;3.83;;;1.67;;
55009;SDS011;40903;51.638;7.528;2023-07-29T14:35:04;3.03;;;2.10;;
55009;SDS011;40903;51.638;7.528;2023-07-29T14:37:30;2.60;;;2.40;;
55009;SDS011;40903;51.638;7.528;2023-07-29T14:39:57;3.63;;;2.10;;
55009;SDS011;40903;51.638;7.528;2023-07-29T14:42:23;7.73;;;2.40;;
55009;SDS011;40903;51.638;7.528;2023-07-29T14:44:48;3.50;;;2.40;;
55009;SDS011;40903;51.638;7.528;2023-07-29T14:47:14;4.87;;;2.20;;
55009;SDS011;40903;51.638;7.528;2023-07-29T14:49:39;12.47;;;2.20;;
55009;SDS011;40903;51.638;7.528;2023-07-29T14:52:05;5.60;;;2.50;;
55009;SDS011;40903;51.638;7.528;2023-07-29T14:54:31;4.20;;;2.43;;
55009;SDS011;40903;51.638;7.528;2023-07-29T14:56:57;2.70;;;2.50;;
55009;SDS011;40903;51.638;7.528;2023-07-29T14:59:22;2.20;;;2.00;;
55009;SDS011;40903;51.638;7.528;2023-07-29T15:01:48;4.40;;;2.00;;
55009;SDS011;40903;51.638;7.528;2023-07-29T15:04:13;3.73;;;2.20;;
55009;SDS011;40903;51.638;7.528;2023-07-29T15:06:38;3.13;;;2.30;;